createdAt,value
2019-06-04T00:00:09.236Z,99.90
2019-06-04T00:02:40.129Z,99.90
2019-06-04T00:05:10.016Z,99.90
2019-06-04T00:07:39.863Z,99.90
2019-06-04T00:10:09.776Z,99.90
2019-06-04T00:12:39.664Z,99.90
2019-06-04T00:15:09.768Z,99.90
2019-06-04T00:17:39.578Z,99.90
2019-06-04T00:20:09.844Z,99.90
2019-06-04T00:22:39.654Z,99.90
2019-06-04T00:25:10.208Z,99.90
2019-06-04T00:27:40.093Z,99.90
2019-06-04T00:30:10.563Z,99.90
2019-06-04T00:32:40.505Z,99.90
2019-06-04T00:35:14.797Z,99.90
2019-06-04T00:37:44.731Z,99.90
2019-06-04T00:40:17.682Z,99.90
2019-06-04T00:42:47.536Z,99.90
2019-06-04T00:45:18.831Z,99.90
2019-06-04T00:47:48.640Z,99.90
2019-06-04T00:50:18.525Z,99.90
2019-06-04T00:52:49.348Z,99.90
2019-06-04T00:55:31.762Z,99.90
2019-06-04T00:58:04.722Z,99.90
2019-06-04T01:00:37.923Z,99.90
2019-06-04T01:03:12.341Z,99.90
2019-06-04T01:05:42.233Z,99.90
2019-06-04T01:08:21.186Z,99.90
2019-06-04T01:10:43.648Z,99.90
2019-06-04T01:13:13.515Z,99.90
2019-06-04T01:15:43.355Z,99.90
2019-06-04T01:18:13.191Z,99.90
2019-06-04T01:20:44.941Z,99.90
2019-06-04T01:23:15.646Z,99.90
2019-06-04T01:25:45.765Z,99.90
2019-06-04T01:28:15.856Z,99.90
2019-06-04T01:30:45.878Z,99.90
2019-06-04T01:33:15.900Z,99.90
2019-06-04T01:35:46.866Z,99.90
2019-06-04T01:38:16.685Z,99.90
2019-06-04T01:40:46.546Z,99.90
2019-06-04T01:43:16.514Z,99.90
2019-06-04T01:45:46.425Z,99.90
2019-06-04T01:48:16.256Z,99.90
2019-06-04T01:50:46.233Z,99.90
2019-06-04T01:53:16.252Z,99.90
2019-06-04T01:55:46.099Z,99.90
2019-06-04T01:58:15.955Z,99.90
2019-06-04T02:00:45.813Z,99.90
2019-06-04T02:03:15.727Z,99.90
2019-06-04T02:05:46.605Z,99.90
2019-06-04T02:08:16.443Z,99.90
2019-06-04T02:10:46.391Z,99.90
2019-06-04T02:13:16.255Z,99.90
2019-06-04T02:15:46.089Z,99.90
2019-06-04T02:18:15.919Z,99.90
2019-06-04T02:20:45.840Z,99.90
2019-06-04T02:23:16.208Z,99.90
2019-06-04T02:25:46.112Z,99.90
2019-06-04T02:28:15.937Z,99.90
2019-06-04T02:30:45.775Z,99.90
2019-06-04T02:33:20.887Z,99.90
2019-06-04T02:35:47.119Z,99.90
2019-06-04T02:38:17.436Z,99.90
2019-06-04T02:40:51.642Z,99.90
2019-06-04T02:43:21.481Z,99.90
2019-06-04T02:45:51.727Z,99.90
2019-06-04T02:48:26.888Z,99.90
2019-06-04T02:50:58.550Z,99.90
2019-06-04T02:53:29.282Z,99.90
2019-06-04T02:55:59.264Z,99.90
2019-06-04T02:58:29.141Z,99.90
2019-06-04T03:01:03.727Z,99.90
2019-06-04T03:03:36.726Z,99.90
2019-06-04T03:06:09.121Z,99.90
2019-06-04T03:08:40.537Z,99.90
2019-06-04T03:11:13.812Z,99.90
2019-06-04T03:13:41.932Z,99.90
2019-06-04T03:16:13.022Z,99.90
2019-06-04T03:18:43.399Z,99.90
2019-06-04T03:21:14.259Z,99.90
2019-06-04T03:23:44.900Z,99.90
2019-06-04T03:26:15.594Z,99.90
2019-06-04T03:28:45.516Z,99.90
2019-06-04T03:31:17.833Z,99.90
2019-06-04T03:33:57.270Z,99.90
2019-06-04T03:36:20.876Z,99.90
2019-06-04T03:38:50.968Z,99.90
2019-06-04T03:41:21.620Z,99.90
2019-06-04T03:43:52.090Z,99.90
2019-06-04T03:46:23.026Z,99.90
2019-06-04T03:48:53.064Z,99.90
2019-06-04T03:51:24.698Z,99.90
2019-06-04T03:53:54.599Z,99.90
2019-06-04T03:56:25.270Z,99.90
2019-06-04T03:58:56.854Z,99.90
2019-06-04T04:01:26.886Z,99.90
2019-06-04T04:04:07.174Z,99.90
2019-06-04T04:06:29.321Z,99.90
2019-06-04T04:08:59.265Z,99.90
2019-06-04T04:11:29.196Z,99.90
2019-06-04T04:13:59.696Z,99.90
2019-06-04T04:16:34.161Z,99.90
2019-06-04T04:19:04.172Z,99.90
2019-06-04T04:21:35.573Z,99.90
2019-06-04T04:24:05.488Z,99.90
2019-06-04T04:26:35.406Z,99.90
2019-06-04T04:29:06.263Z,99.90
2019-06-04T04:31:36.219Z,99.90
2019-06-04T04:34:06.220Z,99.90
2019-06-04T04:36:36.131Z,99.90
2019-06-04T04:39:08.708Z,99.90
2019-06-04T04:41:38.601Z,99.90
2019-06-04T04:44:13.485Z,99.90
2019-06-04T04:46:43.966Z,99.90
2019-06-04T04:49:14.749Z,99.90
2019-06-04T04:51:44.687Z,99.90
2019-06-04T04:54:14.532Z,99.90
2019-06-04T04:56:44.819Z,99.90
2019-06-04T04:59:14.641Z,99.90
2019-06-04T05:01:45.729Z,99.90
2019-06-04T05:04:17.485Z,99.90
2019-06-04T05:06:48.520Z,99.90
2019-06-04T05:09:20.024Z,99.90
2019-06-04T05:11:50.689Z,99.90
2019-06-04T05:14:22.924Z,99.90
2019-06-04T05:16:54.833Z,99.90
2019-06-04T05:19:31.476Z,99.90
2019-06-04T05:22:03.289Z,99.90
2019-06-04T05:24:33.837Z,99.90
2019-06-04T05:27:03.875Z,99.90
2019-06-04T05:29:34.268Z,99.90
2019-06-04T05:32:04.276Z,99.90
2019-06-04T05:34:34.121Z,99.90
2019-06-04T05:37:04.108Z,99.90
2019-06-04T05:39:33.950Z,99.90
2019-06-04T05:42:04.300Z,99.90
2019-06-04T05:44:34.595Z,99.90
2019-06-04T05:47:04.765Z,99.90
2019-06-04T05:49:34.921Z,99.90
2019-06-04T05:52:05.238Z,99.90
2019-06-04T05:54:35.320Z,99.90
2019-06-04T05:57:05.723Z,99.90
2019-06-04T05:59:35.884Z,99.90
2019-06-04T06:02:06.189Z,99.90
2019-06-04T06:04:36.428Z,99.90
2019-06-04T06:07:17.583Z,99.90
2019-06-04T06:09:47.729Z,99.90
2019-06-04T06:12:18.114Z,99.90
2019-06-04T06:14:48.425Z,99.90
2019-06-04T06:17:18.643Z,99.90
2019-06-04T06:19:48.802Z,99.90
2019-06-04T06:22:19.190Z,99.90
2019-06-04T06:24:49.415Z,99.90
2019-06-04T06:27:19.572Z,99.90
2019-06-04T06:29:49.850Z,99.90
2019-06-04T06:32:19.950Z,99.90
2019-06-04T06:34:50.148Z,99.90
2019-06-04T06:37:20.392Z,99.90
2019-06-04T06:39:50.650Z,99.90
2019-06-04T06:42:20.753Z,99.90
2019-06-04T06:44:51.480Z,99.90
2019-06-04T06:47:21.729Z,99.90
2019-06-04T06:49:52.018Z,99.90
2019-06-04T06:52:22.291Z,99.90
2019-06-04T06:54:52.959Z,99.90
2019-06-04T06:57:23.145Z,99.90
2019-06-04T06:59:53.412Z,99.90
2019-06-04T07:02:25.075Z,99.90
2019-06-04T07:04:56.163Z,99.90
2019-06-04T07:07:27.286Z,99.90
2019-06-04T07:09:57.556Z,99.90
2019-06-04T07:12:30.474Z,99.90
2019-06-04T07:15:03.285Z,99.90
2019-06-04T07:17:33.460Z,99.90
2019-06-04T07:20:03.630Z,99.90
2019-06-04T07:22:33.843Z,99.90
2019-06-04T07:25:04.788Z,99.90
2019-06-04T07:27:36.307Z,99.90
2019-06-04T07:30:09.202Z,99.90
2019-06-04T07:32:41.073Z,99.90
2019-06-04T07:35:11.463Z,99.90
2019-06-04T07:37:41.731Z,99.90
2019-06-04T07:40:11.993Z,99.90
2019-06-04T07:42:42.300Z,99.90
2019-06-04T07:45:12.578Z,99.90
2019-06-04T07:47:42.683Z,99.90
2019-06-04T07:50:14.267Z,99.90
2019-06-04T07:52:44.953Z,99.90
2019-06-04T07:55:15.165Z,99.90
2019-06-04T07:57:45.358Z,99.90
2019-06-04T08:00:18.741Z,99.90
2019-06-04T08:02:48.836Z,99.90
2019-06-04T08:05:19.000Z,99.90
2019-06-04T08:07:49.261Z,99.90
2019-06-04T08:10:19.390Z,99.90
2019-06-04T08:12:49.908Z,99.90
2019-06-04T08:15:20.152Z,99.90
2019-06-04T08:17:50.400Z,99.90
2019-06-04T08:20:20.549Z,99.90
2019-06-04T08:22:51.002Z,99.90
2019-06-04T08:25:20.950Z,99.90
2019-06-04T08:27:51.467Z,99.90
2019-06-04T08:30:22.190Z,99.90
2019-06-04T08:32:52.371Z,99.90
2019-06-04T08:35:23.541Z,99.90
2019-06-04T08:37:53.712Z,99.90
2019-06-04T08:40:23.912Z,99.90
2019-06-04T08:42:57.023Z,99.90
2019-06-04T08:45:27.266Z,99.90
2019-06-04T08:47:57.456Z,99.90
2019-06-04T08:50:27.840Z,99.90
2019-06-04T08:52:57.924Z,99.90
2019-06-04T08:55:35.986Z,99.90
2019-06-04T08:58:07.476Z,99.90
2019-06-04T09:00:39.439Z,99.90
2019-06-04T09:03:10.089Z,99.90
2019-06-04T09:05:40.309Z,99.90
2019-06-04T09:08:12.274Z,99.90
2019-06-04T09:10:47.732Z,99.90
2019-06-04T09:13:19.243Z,99.90
2019-06-04T09:15:55.414Z,99.90
2019-06-04T09:18:21.990Z,99.90
2019-06-04T09:20:52.212Z,99.90
2019-06-04T09:23:22.402Z,99.90
2019-06-04T09:25:53.632Z,99.90
2019-06-04T09:28:24.003Z,99.90
2019-06-04T09:31:02.219Z,99.90
2019-06-04T09:33:27.404Z,99.90
2019-06-04T09:35:57.613Z,99.90
2019-06-04T09:38:27.807Z,99.90
2019-06-04T09:41:00.000Z,99.90
2019-06-04T09:43:30.249Z,99.90
2019-06-04T09:46:00.384Z,99.90
2019-06-04T09:48:31.523Z,99.90
2019-06-04T09:51:01.682Z,99.90
2019-06-04T09:53:31.811Z,99.90
2019-06-04T09:56:03.386Z,99.90
2019-06-04T09:58:33.379Z,99.90
2019-06-04T10:01:06.273Z,99.90
2019-06-04T10:03:35.585Z,99.90
2019-06-04T10:06:06.112Z,99.90
2019-06-04T10:08:36.296Z,99.90
2019-06-04T10:11:06.546Z,99.90
2019-06-04T10:13:37.117Z,99.90
2019-06-04T10:16:07.440Z,99.90
2019-06-04T10:18:38.601Z,99.90
2019-06-04T10:21:08.914Z,99.90
2019-06-04T10:23:39.194Z,99.90
2019-06-04T10:26:24.153Z,99.90
2019-06-04T10:28:42.218Z,99.90
2019-06-04T10:31:14.083Z,99.90
2019-06-04T10:33:46.144Z,99.90
2019-06-04T10:36:16.111Z,99.90
2019-06-04T10:38:46.799Z,99.90
2019-06-04T10:41:17.329Z,99.90
2019-06-04T10:43:47.905Z,99.90
2019-06-04T10:46:18.365Z,99.90
2019-06-04T10:48:48.303Z,99.90
2019-06-04T10:51:18.853Z,99.90
2019-06-04T10:53:49.425Z,99.90
2019-06-04T10:56:20.262Z,99.90
2019-06-04T10:58:54.243Z,99.90
2019-06-04T11:01:25.045Z,99.90
2019-06-04T11:03:56.643Z,99.90
2019-06-04T11:06:26.726Z,99.90
2019-06-04T11:09:07.466Z,99.90
2019-06-04T11:11:28.419Z,99.90
2019-06-04T11:14:03.562Z,99.90
2019-06-04T11:16:30.698Z,99.90
2019-06-04T11:19:00.890Z,99.90
2019-06-04T11:21:39.215Z,99.90
2019-06-04T11:24:03.122Z,99.90
2019-06-04T11:26:33.383Z,99.90
2019-06-04T11:29:03.728Z,99.90
2019-06-04T11:31:34.307Z,99.90
2019-06-04T11:34:22.504Z,98.40
2019-06-04T11:36:36.510Z,99.90
2019-06-04T11:39:18.540Z,98.50
2019-06-04T11:41:41.538Z,95.00
2019-06-04T11:44:11.677Z,91.10
2019-06-04T11:46:42.008Z,90.40
2019-06-04T11:49:12.590Z,90.00
2019-06-04T11:51:43.786Z,83.70
2019-06-04T11:54:14.277Z,84.80
2019-06-04T11:56:45.487Z,84.00
2019-06-04T11:59:15.789Z,87.70
2019-06-04T12:01:46.626Z,75.70
2019-06-04T12:04:16.948Z,72.70
2019-06-04T12:06:47.011Z,73.00
2019-06-04T12:09:29.785Z,78.20
2019-06-04T12:12:14.536Z,77.80
2019-06-04T12:14:21.060Z,70.70
2019-06-04T12:16:51.163Z,66.70
2019-06-04T12:19:21.337Z,63.70
2019-06-04T12:21:51.519Z,63.40
2019-06-04T12:24:21.802Z,64.80
2019-06-04T12:26:52.158Z,59.10
2019-06-04T12:29:22.624Z,59.50
2019-06-04T12:31:54.136Z,61.80
2019-06-04T12:34:26.472Z,57.60
2019-06-04T12:36:56.668Z,58.20
2019-06-04T12:39:26.836Z,56.10
2019-06-04T12:41:57.013Z,55.10
2019-06-04T12:44:27.294Z,55.10
2019-06-04T12:47:05.245Z,54.60
2019-06-04T12:49:48.014Z,52.70
2019-06-04T12:52:04.519Z,52.40
2019-06-04T12:54:35.312Z,55.20
2019-06-04T12:57:05.904Z,53.90
2019-06-04T12:59:36.408Z,53.60
2019-06-04T13:02:20.157Z,54.00
2019-06-04T13:04:42.177Z,52.20
2019-06-04T13:07:12.736Z,51.70
2019-06-04T13:09:43.848Z,51.50
2019-06-04T13:12:14.158Z,50.00
2019-06-04T13:14:44.630Z,52.10
2019-06-04T13:17:15.009Z,51.50
2019-06-04T13:19:46.275Z,51.40
2019-06-04T13:22:18.068Z,50.80
2019-06-04T13:24:48.700Z,49.50
2019-06-04T13:27:19.107Z,50.10
2019-06-04T13:29:49.673Z,49.90
2019-06-04T13:32:21.220Z,49.20
2019-06-04T13:34:56.890Z,48.40
2019-06-04T13:37:26.929Z,48.10
2019-06-04T13:39:57.221Z,47.60
2019-06-04T13:42:27.347Z,46.70
2019-06-04T13:44:57.817Z,45.80
2019-06-04T13:47:28.343Z,46.10
2019-06-04T13:49:58.681Z,47.30
2019-06-04T13:52:28.845Z,48.70
2019-06-04T13:54:59.805Z,47.70
2019-06-04T13:57:30.027Z,50.90
2019-06-04T14:00:02.714Z,48.70
2019-06-04T14:02:33.420Z,47.90
2019-06-04T14:05:04.619Z,53.60
2019-06-04T14:07:35.328Z,51.90
2019-06-04T14:10:07.888Z,49.70
2019-06-04T14:12:38.569Z,50.20
2019-06-04T14:15:09.838Z,50.80
2019-06-04T14:17:42.443Z,50.80
2019-06-04T14:20:13.256Z,50.80
2019-06-04T14:22:43.462Z,49.10
2019-06-04T14:25:16.512Z,47.10
2019-06-04T14:27:46.840Z,46.60
2019-06-04T14:30:18.777Z,44.80
2019-06-04T14:32:50.971Z,43.00
2019-06-04T14:35:23.576Z,44.00
2019-06-04T14:37:53.876Z,47.70
2019-06-04T14:40:33.026Z,47.20
2019-06-04T14:42:56.915Z,43.70
2019-06-04T14:45:27.796Z,44.40
2019-06-04T14:47:58.035Z,46.80
2019-06-04T14:50:28.220Z,43.90
2019-06-04T14:52:58.390Z,43.10
2019-06-04T14:55:29.136Z,46.10
2019-06-04T14:57:59.283Z,42.60
2019-06-04T15:00:29.645Z,43.90
2019-06-04T15:03:01.218Z,44.50
2019-06-04T15:05:31.795Z,43.50
2019-06-04T15:08:03.433Z,44.50
2019-06-04T15:10:33.903Z,44.40
2019-06-04T15:13:04.097Z,43.10
2019-06-04T15:15:34.318Z,43.20
2019-06-04T15:18:04.574Z,42.80
2019-06-04T15:20:34.930Z,43.40
2019-06-04T15:23:05.030Z,44.10
2019-06-04T15:25:35.161Z,44.00
2019-06-04T15:28:05.492Z,44.30
2019-06-04T15:30:35.786Z,43.40
2019-06-04T15:33:06.146Z,41.70
2019-06-04T15:35:36.519Z,40.50
2019-06-04T15:38:09.086Z,40.00
2019-06-04T15:40:39.280Z,40.90
2019-06-04T15:43:09.614Z,41.20
2019-06-04T15:45:40.823Z,41.50
2019-06-04T15:48:11.113Z,40.00
2019-06-04T15:50:41.457Z,40.50
2019-06-04T15:53:11.524Z,40.30
2019-06-04T15:55:41.690Z,40.60
2019-06-04T15:58:12.304Z,40.10
2019-06-04T16:00:42.131Z,40.60
2019-06-04T16:03:11.914Z,41.40
2019-06-04T16:05:41.949Z,41.60
2019-06-04T16:08:11.817Z,43.50
2019-06-04T16:10:41.646Z,46.50
2019-06-04T16:13:11.684Z,44.40
2019-06-04T16:15:41.505Z,44.20
2019-06-04T16:18:11.769Z,42.20
2019-06-04T16:20:44.360Z,42.40
2019-06-04T16:23:16.313Z,44.90
2019-06-04T16:25:48.859Z,44.30
2019-06-04T16:28:22.402Z,44.70
2019-06-04T16:30:53.993Z,45.90
2019-06-04T16:33:24.901Z,46.40
2019-06-04T16:35:55.224Z,46.40
2019-06-04T16:38:30.499Z,46.60
2019-06-04T16:40:57.667Z,48.20
2019-06-04T16:43:29.405Z,48.30
2019-06-04T16:46:00.065Z,48.60
2019-06-04T16:48:32.662Z,49.20
2019-06-04T16:51:02.873Z,49.40
2019-06-04T16:53:33.088Z,50.20
2019-06-04T16:56:03.183Z,51.70
2019-06-04T16:58:33.348Z,50.70
2019-06-04T17:01:03.600Z,51.10
2019-06-04T17:03:33.946Z,51.20
2019-06-04T17:06:04.311Z,51.20
2019-06-04T17:08:34.357Z,49.90
2019-06-04T17:11:04.847Z,50.00
2019-06-04T17:13:35.510Z,51.70
2019-06-04T17:16:14.517Z,50.80
2019-06-04T17:18:44.748Z,51.00
2019-06-04T17:21:15.937Z,51.10
2019-06-04T17:23:46.173Z,50.10
2019-06-04T17:26:16.719Z,49.60
2019-06-04T17:28:46.857Z,51.00
2019-06-04T17:31:17.237Z,51.20
2019-06-04T17:33:47.404Z,53.40
2019-06-04T17:36:17.578Z,52.60
2019-06-04T17:38:47.859Z,52.20
2019-06-04T17:41:18.069Z,54.80
2019-06-04T17:43:48.235Z,59.10
2019-06-04T17:46:18.420Z,59.00
2019-06-04T17:48:48.590Z,57.90
2019-06-04T17:51:18.807Z,58.40
2019-06-04T17:53:48.949Z,60.20
2019-06-04T17:56:19.261Z,59.60
2019-06-04T17:58:49.393Z,60.70
2019-06-04T18:01:19.510Z,61.90
2019-06-04T18:03:49.945Z,63.90
2019-06-04T18:06:20.270Z,63.80
2019-06-04T18:08:50.377Z,66.10
2019-06-04T18:11:20.688Z,59.20
2019-06-04T18:13:50.952Z,55.80
2019-06-04T18:16:21.093Z,56.30
2019-06-04T18:18:51.272Z,57.50
2019-06-04T18:21:21.999Z,58.70
2019-06-04T18:23:52.223Z,61.20
2019-06-04T18:26:22.880Z,63.00
2019-06-04T18:28:53.036Z,63.50
2019-06-04T18:31:23.153Z,65.50
2019-06-04T18:33:53.384Z,68.80
2019-06-04T18:36:23.768Z,74.30
2019-06-04T18:38:54.179Z,71.70
2019-06-04T18:41:24.384Z,72.20
2019-06-04T18:43:55.118Z,70.70
2019-06-04T18:46:25.689Z,71.80
2019-06-04T18:48:55.919Z,72.20
2019-06-04T18:51:26.030Z,74.90
2019-06-04T18:53:56.180Z,76.60
2019-06-04T18:56:29.596Z,83.80
2019-06-04T18:59:02.798Z,89.80
2019-06-04T19:01:34.968Z,93.40
2019-06-04T19:04:06.721Z,96.90
2019-06-04T19:06:37.185Z,98.20
2019-06-04T19:09:09.953Z,99.90
2019-06-04T19:11:41.700Z,99.90
2019-06-04T19:14:12.315Z,99.90
2019-06-04T19:16:44.990Z,99.90
2019-06-04T19:19:28.254Z,99.90
2019-06-04T19:21:48.740Z,99.90
2019-06-04T19:24:18.725Z,99.90
2019-06-04T19:26:48.953Z,99.90
2019-06-04T19:29:21.566Z,99.90
2019-06-04T19:31:52.229Z,99.90
2019-06-04T19:34:22.374Z,99.90
2019-06-04T19:36:52.541Z,99.90
2019-06-04T19:39:23.044Z,99.90
2019-06-04T19:41:53.237Z,99.90
2019-06-04T19:44:26.397Z,99.90
2019-06-04T19:46:55.357Z,99.90
2019-06-04T19:49:26.501Z,99.90
2019-06-04T19:51:56.784Z,99.90
2019-06-04T19:54:26.990Z,99.90
2019-06-04T19:56:57.269Z,99.90
2019-06-04T19:59:28.192Z,99.90
2019-06-04T20:01:58.469Z,99.90
2019-06-04T20:04:28.837Z,99.90
2019-06-04T20:06:59.036Z,99.90
2019-06-04T20:09:29.259Z,99.90
2019-06-04T20:11:59.491Z,99.90
2019-06-04T20:14:40.752Z,99.90
2019-06-04T20:17:02.480Z,99.90
2019-06-04T20:19:35.577Z,99.90
2019-06-04T20:22:06.338Z,99.90
2019-06-04T20:24:37.933Z,99.90
2019-06-04T20:27:14.115Z,99.90
2019-06-04T20:29:46.690Z,99.90
2019-06-04T20:32:17.094Z,99.90
2019-06-04T20:34:47.522Z,99.90
2019-06-04T20:37:17.742Z,99.90
2019-06-04T20:39:47.927Z,99.90
2019-06-04T20:42:18.167Z,99.90
2019-06-04T20:45:09.016Z,99.90
2019-06-04T20:47:20.468Z,99.90
2019-06-04T20:49:50.602Z,99.90
2019-06-04T20:52:20.824Z,99.90
2019-06-04T20:54:53.386Z,99.90
2019-06-04T20:57:23.545Z,99.90
2019-06-04T20:59:53.952Z,99.90
2019-06-04T21:02:24.067Z,99.90
2019-06-04T21:04:55.352Z,99.90
2019-06-04T21:07:25.705Z,99.90
2019-06-04T21:09:56.347Z,99.90
2019-06-04T21:12:26.759Z,99.90
2019-06-04T21:14:56.915Z,99.90
2019-06-04T21:17:27.038Z,99.90
2019-06-04T21:19:57.259Z,99.90
2019-06-04T21:22:27.469Z,99.90
2019-06-04T21:24:57.703Z,99.90
2019-06-04T21:27:27.924Z,99.90
2019-06-04T21:29:58.345Z,99.90
2019-06-04T21:32:28.948Z,99.90
2019-06-04T21:34:59.261Z,99.90
2019-06-04T21:37:30.117Z,99.90
2019-06-04T21:40:00.343Z,99.90
2019-06-04T21:42:32.212Z,99.90
2019-06-04T21:45:02.393Z,99.90
2019-06-04T21:47:33.231Z,99.90
2019-06-04T21:50:03.548Z,99.90
2019-06-04T21:52:34.683Z,99.90
2019-06-04T21:55:05.080Z,99.90
2019-06-04T21:57:37.434Z,99.90
2019-06-04T22:00:09.075Z,99.90
2019-06-04T22:02:39.807Z,99.90
2019-06-04T22:05:10.181Z,99.90
2019-06-04T22:07:40.250Z,99.90
2019-06-04T22:10:10.744Z,99.90
2019-06-04T22:12:41.083Z,99.90
2019-06-04T22:15:11.981Z,99.90
2019-06-04T22:17:42.173Z,99.90
2019-06-04T22:20:13.808Z,99.90
2019-06-04T22:22:43.976Z,99.90
2019-06-04T22:25:14.663Z,99.90
2019-06-04T22:27:44.873Z,99.90
2019-06-04T22:30:15.310Z,99.90
2019-06-04T22:32:45.434Z,99.90
2019-06-04T22:35:15.757Z,99.90
2019-06-04T22:37:45.955Z,99.90
2019-06-04T22:40:16.278Z,99.90
2019-06-04T22:42:46.508Z,99.90
2019-06-04T22:45:16.681Z,99.90
2019-06-04T22:47:46.853Z,99.90
2019-06-04T22:50:17.220Z,99.90
2019-06-04T22:52:47.347Z,99.90
2019-06-04T22:55:17.587Z,99.90
2019-06-04T22:57:47.913Z,99.90
2019-06-04T23:00:18.712Z,99.90
2019-06-04T23:02:48.903Z,99.90
2019-06-04T23:05:19.131Z,99.90
2019-06-04T23:07:49.284Z,99.90
2019-06-04T23:10:19.766Z,99.90
2019-06-04T23:12:50.698Z,99.90
2019-06-04T23:15:21.046Z,99.90
2019-06-04T23:17:51.260Z,99.90
2019-06-04T23:20:21.594Z,99.90
2019-06-04T23:22:51.734Z,99.90
2019-06-04T23:25:21.912Z,99.90
2019-06-04T23:27:52.201Z,99.90
2019-06-04T23:30:23.084Z,99.90
2019-06-04T23:32:54.375Z,99.90
2019-06-04T23:35:25.681Z,99.90
2019-06-04T23:37:56.895Z,99.90
2019-06-04T23:40:27.145Z,99.90
2019-06-04T23:42:57.516Z,99.90
2019-06-04T23:45:27.717Z,99.90
2019-06-04T23:47:57.975Z,99.90
2019-06-04T23:50:28.288Z,99.90
2019-06-04T23:52:59.411Z,99.90
2019-06-04T23:55:29.684Z,99.90
2019-06-04T23:57:59.894Z,99.90
